sensor_id;sensor_type;location;lat;lon;timestamp;pressure;altitude;pressure_sealevel;temperature;humidity
55347;BME280;41218;55.700;38.270;2022-11-15T00:04:53;100475.56;;;-0.18;55.92
55347;BME280;41218;55.700;38.270;2022-11-15T00:09:54;100474.44;;;-0.17;55.92
55347;BME280;41218;55.700;38.270;2022-11-15T00:14:54;100466.88;;;-0.20;55.65
55347;BME280;41218;55.700;38.270;2022-11-15T00:19:55;100466.03;;;-0.21;55.59
55347;BME280;41218;55.700;38.270;2022-11-15T00:24:56;100465.81;;;-0.24;55.25
55347;BME280;41218;55.700;38.270;2022-11-15T00:29:56;100469.84;;;-0.22;55.01
55347;BME280;41218;55.700;38.270;2022-11-15T00:34:57;100461.19;;;-0.24;54.75
55347;BME280;41218;55.700;38.270;2022-11-15T00:39:57;100464.16;;;-0.25;54.53
55347;BME280;41218;55.700;38.270;2022-11-15T00:44:58;100456.56;;;-0.23;54.86
55347;BME280;41218;55.700;38.270;2022-11-15T00:49:58;100449.47;;;-0.19;55.18
55347;BME280;41218;55.700;38.270;2022-11-15T00:54:59;100430.50;;;-0.24;55.46
55347;BME280;41218;55.700;38.270;2022-11-15T00:59:59;100442.63;;;-0.11;55.37
55347;BME280;41218;55.700;38.270;2022-11-15T01:05:00;100433.41;;;-0.15;55.40
55347;BME280;41218;55.700;38.270;2022-11-15T01:10:00;100430.97;;;-0.12;55.30
55347;BME280;41218;55.700;38.270;2022-11-15T01:15:01;100423.59;;;-0.11;55.01
55347;BME280;41218;55.700;38.270;2022-11-15T01:20:02;100410.56;;;-0.14;55.00
55347;BME280;41218;55.700;38.270;2022-11-15T01:25:03;100426.31;;;-0.11;55.08
55347;BME280;41218;55.700;38.270;2022-11-15T01:30:04;100408.69;;;-0.14;55.90
55347;BME280;41218;55.700;38.270;2022-11-15T01:35:05;100423.00;;;-0.03;55.75
55347;BME280;41218;55.700;38.270;2022-11-15T01:40:06;100403.44;;;-0.05;55.90
55347;BME280;41218;55.700;38.270;2022-11-15T01:45:14;100398.81;;;-0.05;56.41
55347;BME280;41218;55.700;38.270;2022-11-15T01:50:18;100391.97;;;0.03;56.47
55347;BME280;41218;55.700;38.270;2022-11-15T01:55:23;100397.13;;;0.05;56.42
55347;BME280;41218;55.700;38.270;2022-11-15T02:00:25;100399.84;;;0.05;56.60
55347;BME280;41218;55.700;38.270;2022-11-15T02:05:26;100388.47;;;0.03;56.48
55347;BME280;41218;55.700;38.270;2022-11-15T02:10:27;100398.81;;;0.01;56.54
55347;BME280;41218;55.700;38.270;2022-11-15T02:15:34;100381.13;;;-0.02;56.18
55347;BME280;41218;55.700;38.270;2022-11-15T02:21:01;100377.88;;;-0.04;56.47
55347;BME280;41218;55.700;38.270;2022-11-15T02:42:14;100368.91;;;0.01;56.66
55347;BME280;41218;55.700;38.270;2022-11-15T02:47:38;100373.75;;;0.04;57.12
55347;BME280;41218;55.700;38.270;2022-11-15T02:52:45;100379.19;;;0.04;57.00
55347;BME280;41218;55.700;38.270;2022-11-15T03:03:22;100362.31;;;0.07;56.57
55347;BME280;41218;55.700;38.270;2022-11-15T03:08:35;100356.13;;;0.01;56.98
55347;BME280;41218;55.700;38.270;2022-11-15T03:18:43;100354.19;;;0.02;56.83
55347;BME280;41218;55.700;38.270;2022-11-15T03:23:48;100344.19;;;-0.03;56.05
55347;BME280;41218;55.700;38.270;2022-11-15T03:28:53;100349.09;;;-0.05;56.26
55347;BME280;41218;55.700;38.270;2022-11-15T03:33:57;100340.41;;;-0.07;55.92
55347;BME280;41218;55.700;38.270;2022-11-15T03:39:02;100343.47;;;-0.14;55.97
55347;BME280;41218;55.700;38.270;2022-11-15T03:44:50;100348.31;;;-0.11;56.35
55347;BME280;41218;55.700;38.270;2022-11-15T03:49:56;100352.94;;;-0.11;56.15
55347;BME280;41218;55.700;38.270;2022-11-15T03:55:01;100351.63;;;-0.14;56.14
55347;BME280;41218;55.700;38.270;2022-11-15T04:00:04;100347.53;;;-0.16;55.56
55347;BME280;41218;55.700;38.270;2022-11-15T04:05:05;100347.03;;;-0.18;55.56
55347;BME280;41218;55.700;38.270;2022-11-15T04:10:06;100344.06;;;-0.22;55.66
55347;BME280;41218;55.700;38.270;2022-11-15T04:15:11;100337.00;;;-0.23;55.90
55347;BME280;41218;55.700;38.270;2022-11-15T04:20:38;100348.38;;;-0.16;55.99
55347;BME280;41218;55.700;38.270;2022-11-15T04:26:08;100344.81;;;-0.16;55.02
55347;BME280;41218;55.700;38.270;2022-11-15T04:31:10;100334.81;;;-0.21;55.65
55347;BME280;41218;55.700;38.270;2022-11-15T04:36:10;100319.38;;;-0.26;55.63
55347;BME280;41218;55.700;38.270;2022-11-15T04:41:49;100322.03;;;-0.21;55.50
55347;BME280;41218;55.700;38.270;2022-11-15T04:46:50;100316.06;;;-0.23;55.52
55347;BME280;41218;55.700;38.270;2022-11-15T04:51:50;100326.13;;;-0.23;55.25
55347;BME280;41218;55.700;38.270;2022-11-15T04:56:51;100322.63;;;-0.24;55.29
55347;BME280;41218;55.700;38.270;2022-11-15T05:01:51;100317.22;;;-0.29;55.33
55347;BME280;41218;55.700;38.270;2022-11-15T05:06:52;100304.50;;;-0.33;55.09
55347;BME280;41218;55.700;38.270;2022-11-15T05:11:52;100317.25;;;-0.34;55.25
55347;BME280;41218;55.700;38.270;2022-11-15T05:16:53;100317.00;;;-0.32;54.86
55347;BME280;41218;55.700;38.270;2022-11-15T05:21:53;100303.75;;;-0.44;55.14
55347;BME280;41218;55.700;38.270;2022-11-15T05:26:54;100310.78;;;-0.38;54.78
55347;BME280;41218;55.700;38.270;2022-11-15T05:31:54;100298.31;;;-0.44;54.52
55347;BME280;41218;55.700;38.270;2022-11-15T05:36:55;100309.13;;;-0.39;54.67
55347;BME280;41218;55.700;38.270;2022-11-15T05:42:00;100302.94;;;-0.45;54.49
55347;BME280;41218;55.700;38.270;2022-11-15T05:47:04;100299.94;;;-0.43;54.69
55347;BME280;41218;55.700;38.270;2022-11-15T05:52:07;100294.75;;;-0.39;54.64
55347;BME280;41218;55.700;38.270;2022-11-15T05:57:09;100276.31;;;-0.43;54.67
55347;BME280;41218;55.700;38.270;2022-11-15T06:02:10;100280.31;;;-0.35;54.53
55347;BME280;41218;55.700;38.270;2022-11-15T06:07:11;100291.41;;;-0.26;54.91
55347;BME280;41218;55.700;38.270;2022-11-15T06:12:11;100270.28;;;-0.34;54.69
55347;BME280;41218;55.700;38.270;2022-11-15T06:17:12;100274.34;;;-0.32;54.72
55347;BME280;41218;55.700;38.270;2022-11-15T06:22:12;100278.03;;;-0.23;55.01
55347;BME280;41218;55.700;38.270;2022-11-15T06:32:16;100268.19;;;-0.13;54.62
55347;BME280;41218;55.700;38.270;2022-11-15T06:37:16;100271.44;;;-0.11;54.74
55347;BME280;41218;55.700;38.270;2022-11-15T06:42:17;100259.44;;;-0.10;54.95
55347;BME280;41218;55.700;38.270;2022-11-15T06:47:17;100256.94;;;-0.02;54.92
55347;BME280;41218;55.700;38.270;2022-11-15T06:52:18;100260.19;;;0.01;54.93
55347;BME280;41218;55.700;38.270;2022-11-15T06:57:19;100254.47;;;0.02;54.38
55347;BME280;41218;55.700;38.270;2022-11-15T07:02:20;100265.34;;;0.02;54.24
55347;BME280;41218;55.700;38.270;2022-11-15T07:07:20;100250.41;;;-0.01;54.25
55347;BME280;41218;55.700;38.270;2022-11-15T07:12:21;100256.06;;;0.03;54.25
55347;BME280;41218;55.700;38.270;2022-11-15T07:17:21;100247.69;;;-0.01;53.80
55347;BME280;41218;55.700;38.270;2022-11-15T07:22:22;100242.75;;;0.02;54.13
55347;BME280;41218;55.700;38.270;2022-11-15T07:27:22;100225.38;;;0.03;54.05
55347;BME280;41218;55.700;38.270;2022-11-15T07:32:23;100223.63;;;0.12;54.69
55347;BME280;41218;55.700;38.270;2022-11-15T07:37:23;100229.59;;;0.14;54.18
55347;BME280;41218;55.700;38.270;2022-11-15T07:42:24;100224.13;;;0.19;54.17
55347;BME280;41218;55.700;38.270;2022-11-15T07:47:47;100230.06;;;0.21;53.90
55347;BME280;41218;55.700;38.270;2022-11-15T07:52:53;100217.25;;;0.27;54.07
55347;BME280;41218;55.700;38.270;2022-11-15T07:58:03;100202.53;;;0.28;54.34
55347;BME280;41218;55.700;38.270;2022-11-15T08:03:12;100215.75;;;0.34;54.45
55347;BME280;41218;55.700;38.270;2022-11-15T08:08:13;100212.19;;;0.39;54.23
55347;BME280;41218;55.700;38.270;2022-11-15T08:13:14;100198.28;;;0.40;54.09
55347;BME280;41218;55.700;38.270;2022-11-15T08:18:16;100206.41;;;0.46;53.93
55347;BME280;41218;55.700;38.270;2022-11-15T08:23:16;100182.03;;;0.35;54.09
55347;BME280;41218;55.700;38.270;2022-11-15T08:28:17;100196.63;;;0.45;53.97
55347;BME280;41218;55.700;38.270;2022-11-15T08:33:17;100175.56;;;0.31;54.11
55347;BME280;41218;55.700;38.270;2022-11-15T08:38:18;100198.69;;;0.53;54.20
55347;BME280;41218;55.700;38.270;2022-11-15T08:43:18;100194.13;;;0.48;54.08
55347;BME280;41218;55.700;38.270;2022-11-15T08:48:19;100189.72;;;0.52;53.95
55347;BME280;41218;55.700;38.270;2022-11-15T08:53:19;100176.09;;;0.52;54.00
55347;BME280;41218;55.700;38.270;2022-11-15T08:58:20;100164.38;;;0.57;54.03
55347;BME280;41218;55.700;38.270;2022-11-15T09:03:20;100157.75;;;0.63;54.20
55347;BME280;41218;55.700;38.270;2022-11-15T09:08:21;100150.91;;;0.66;53.63
55347;BME280;41218;55.700;38.270;2022-11-15T09:13:22;100151.44;;;0.68;53.76
55347;BME280;41218;55.700;38.270;2022-11-15T09:18:22;100157.91;;;0.72;53.47
55347;BME280;41218;55.700;38.270;2022-11-15T09:23:24;100147.03;;;0.72;53.56
55347;BME280;41218;55.700;38.270;2022-11-15T09:28:25;100146.78;;;0.68;53.52
55347;BME280;41218;55.700;38.270;2022-11-15T09:33:26;100135.91;;;0.68;53.39
55347;BME280;41218;55.700;38.270;2022-11-15T09:38:27;100137.22;;;0.71;53.24
55347;BME280;41218;55.700;38.270;2022-11-15T09:48:55;100142.09;;;0.74;53.42
55347;BME280;41218;55.700;38.270;2022-11-15T09:54:31;100136.88;;;0.77;52.85
55347;BME280;41218;55.700;38.270;2022-11-15T10:05:14;100122.16;;;0.78;52.86
55347;BME280;41218;55.700;38.270;2022-11-15T10:10:28;100110.19;;;0.79;52.76
55347;BME280;41218;55.700;38.270;2022-11-15T10:15:31;100102.00;;;0.79;53.06
55347;BME280;41218;55.700;38.270;2022-11-15T10:20:34;100106.78;;;0.88;53.15
55347;BME280;41218;55.700;38.270;2022-11-15T10:25:40;100095.97;;;0.83;52.85
55347;BME280;41218;55.700;38.270;2022-11-15T10:30:44;100088.53;;;0.88;53.07
55347;BME280;41218;55.700;38.270;2022-11-15T10:35:45;100073.84;;;0.89;52.64
55347;BME280;41218;55.700;38.270;2022-11-15T10:40:45;100068.59;;;0.93;52.46
55347;BME280;41218;55.700;38.270;2022-11-15T10:45:46;100065.88;;;0.93;52.78
55347;BME280;41218;55.700;38.270;2022-11-15T10:50:48;100068.50;;;0.98;52.93
55347;BME280;41218;55.700;38.270;2022-11-15T10:56:00;100064.66;;;0.99;52.52
55347;BME280;41218;55.700;38.270;2022-11-15T11:01:25;100060.06;;;0.99;52.40
55347;BME280;41218;55.700;38.270;2022-11-15T11:06:26;100053.78;;;0.99;52.77
55347;BME280;41218;55.700;38.270;2022-11-15T11:11:46;100052.69;;;1.00;52.43
55347;BME280;41218;55.700;38.270;2022-11-15T11:32:40;100027.56;;;1.03;52.75
55347;BME280;41218;55.700;38.270;2022-11-15T11:37:53;100011.06;;;0.99;52.92
55347;BME280;41218;55.700;38.270;2022-11-15T11:48:18;100002.69;;;0.96;53.12
55347;BME280;41218;55.700;38.270;2022-11-15T11:59:06;100001.88;;;0.95;53.23
55347;BME280;41218;55.700;38.270;2022-11-15T12:04:28;99995.94;;;0.93;53.22
55347;BME280;41218;55.700;38.270;2022-11-15T12:09:44;99978.59;;;0.89;53.27
55347;BME280;41218;55.700;38.270;2022-11-15T12:20:22;99982.19;;;0.85;53.45
55347;BME280;41218;55.700;38.270;2022-11-15T12:30:50;99977.34;;;0.82;53.73
55347;BME280;41218;55.700;38.270;2022-11-15T12:36:04;99965.75;;;0.76;53.91
55347;BME280;41218;55.700;38.270;2022-11-15T12:41:16;99974.13;;;0.79;54.32
55347;BME280;41218;55.700;38.270;2022-11-15T13:27:51;99929.84;;;0.60;55.89
55347;BME280;41218;55.700;38.270;2022-11-15T13:32:54;99926.03;;;0.61;56.48
55347;BME280;41218;55.700;38.270;2022-11-15T13:37:56;99924.19;;;0.56;56.54
55347;BME280;41218;55.700;38.270;2022-11-15T13:42:58;99923.38;;;0.56;56.62
55347;BME280;41218;55.700;38.270;2022-11-15T13:47:58;99914.81;;;0.49;56.85
55347;BME280;41218;55.700;38.270;2022-11-15T13:53:01;99921.84;;;0.50;57.06
55347;BME280;41218;55.700;38.270;2022-11-15T13:58:04;99912.38;;;0.47;57.40
55347;BME280;41218;55.700;38.270;2022-11-15T14:13:30;99898.56;;;0.44;58.06
55347;BME280;41218;55.700;38.270;2022-11-15T14:18:54;99904.59;;;0.40;58.25
55347;BME280;41218;55.700;38.270;2022-11-15T14:24:13;99899.75;;;0.37;58.55
55347;BME280;41218;55.700;38.270;2022-11-15T14:29:27;99892.00;;;0.31;58.68
55347;BME280;41218;55.700;38.270;2022-11-15T14:34:31;99888.78;;;0.29;58.56
55347;BME280;41218;55.700;38.270;2022-11-15T14:39:32;99882.31;;;0.25;58.65
55347;BME280;41218;55.700;38.270;2022-11-15T14:44:32;99861.03;;;0.13;58.97
55347;BME280;41218;55.700;38.270;2022-11-15T14:49:33;99860.63;;;0.19;59.13
55347;BME280;41218;55.700;38.270;2022-11-15T14:54:33;99859.03;;;0.18;59.21
55347;BME280;41218;55.700;38.270;2022-11-15T14:59:34;99863.66;;;0.18;59.41
55347;BME280;41218;55.700;38.270;2022-11-15T15:04:34;99858.81;;;0.15;59.62
55347;BME280;41218;55.700;38.270;2022-11-15T15:09:35;99847.72;;;0.11;59.43
55347;BME280;41218;55.700;38.270;2022-11-15T15:14:35;99842.00;;;0.13;59.84
55347;BME280;41218;55.700;38.270;2022-11-15T15:19:36;99841.19;;;0.12;59.75
55347;BME280;41218;55.700;38.270;2022-11-15T15:24:38;99833.91;;;0.08;59.89
55347;BME280;41218;55.700;38.270;2022-11-15T15:29:39;99820.22;;;-0.01;59.99
55347;BME280;41218;55.700;38.270;2022-11-15T15:34:40;99826.97;;;0.02;59.78
55347;BME280;41218;55.700;38.270;2022-11-15T15:39:40;99823.00;;;-0.06;60.04
55347;BME280;41218;55.700;38.270;2022-11-15T15:44:41;99816.78;;;-0.07;60.52
55347;BME280;41218;55.700;38.270;2022-11-15T15:49:41;99811.84;;;-0.05;60.43
55347;BME280;41218;55.700;38.270;2022-11-15T15:54:42;99800.41;;;-0.02;60.62
55347;BME280;41218;55.700;38.270;2022-11-15T15:59:43;99791.75;;;-0.04;60.52
55347;BME280;41218;55.700;38.270;2022-11-15T16:04:43;99786.09;;;-0.07;60.62
55347;BME280;41218;55.700;38.270;2022-11-15T16:09:44;99773.06;;;-0.10;60.94
55347;BME280;41218;55.700;38.270;2022-11-15T16:15:01;99784.97;;;-0.06;60.85
55347;BME280;41218;55.700;38.270;2022-11-15T16:20:01;99757.59;;;-0.10;60.97
55347;BME280;41218;55.700;38.270;2022-11-15T16:25:03;99768.66;;;-0.06;60.79
55347;BME280;41218;55.700;38.270;2022-11-15T16:30:04;99758.91;;;-0.07;61.24
55347;BME280;41218;55.700;38.270;2022-11-15T16:35:04;99763.03;;;-0.10;61.16
55347;BME280;41218;55.700;38.270;2022-11-15T16:40:16;99749.47;;;-0.10;61.54
55347;BME280;41218;55.700;38.270;2022-11-15T16:45:19;99743.88;;;-0.18;61.18
55347;BME280;41218;55.700;38.270;2022-11-15T16:55:25;99745.13;;;-0.11;61.44
55347;BME280;41218;55.700;38.270;2022-11-15T17:00:27;99749.47;;;-0.10;61.67
55347;BME280;41218;55.700;38.270;2022-11-15T17:05:28;99749.25;;;-0.13;61.55
55347;BME280;41218;55.700;38.270;2022-11-15T17:10:28;99737.06;;;-0.16;61.67
55347;BME280;41218;55.700;38.270;2022-11-15T17:15:29;99738.97;;;-0.16;61.78
55347;BME280;41218;55.700;38.270;2022-11-15T17:20:29;99735.72;;;-0.18;61.75
55347;BME280;41218;55.700;38.270;2022-11-15T17:25:30;99731.94;;;-0.17;61.71
55347;BME280;41218;55.700;38.270;2022-11-15T17:30:30;99722.53;;;-0.25;62.04
55347;BME280;41218;55.700;38.270;2022-11-15T17:35:31;99731.19;;;-0.23;61.91
55347;BME280;41218;55.700;38.270;2022-11-15T17:40:31;99713.16;;;-0.33;62.08
55347;BME280;41218;55.700;38.270;2022-11-15T17:45:32;99724.47;;;-0.26;62.03
55347;BME280;41218;55.700;38.270;2022-11-15T17:50:32;99716.09;;;-0.29;62.14
55347;BME280;41218;55.700;38.270;2022-11-15T17:55:33;99710.38;;;-0.28;62.18
55347;BME280;41218;55.700;38.270;2022-11-15T18:00:33;99717.50;;;-0.32;62.05
55347;BME280;41218;55.700;38.270;2022-11-15T18:05:37;99715.88;;;-0.33;62.30
55347;BME280;41218;55.700;38.270;2022-11-15T18:10:38;99706.72;;;-0.37;62.72
55347;BME280;41218;55.700;38.270;2022-11-15T18:15:38;99700.28;;;-0.41;62.63
55347;BME280;41218;55.700;38.270;2022-11-15T18:20:39;99693.31;;;-0.47;62.81
55347;BME280;41218;55.700;38.270;2022-11-15T18:25:40;99701.69;;;-0.44;62.81
55347;BME280;41218;55.700;38.270;2022-11-15T18:30:41;99697.66;;;-0.46;62.95
55347;BME280;41218;55.700;38.270;2022-11-15T18:35:42;99693.03;;;-0.46;62.80
55347;BME280;41218;55.700;38.270;2022-11-15T18:40:42;99688.78;;;-0.52;62.72
55347;BME280;41218;55.700;38.270;2022-11-15T18:45:43;99682.84;;;-0.54;63.03
55347;BME280;41218;55.700;38.270;2022-11-15T18:50:43;99682.22;;;-0.51;63.01
55347;BME280;41218;55.700;38.270;2022-11-15T18:55:44;99680.63;;;-0.52;63.14
55347;BME280;41218;55.700;38.270;2022-11-15T19:00:44;99671.19;;;-0.54;63.31
55347;BME280;41218;55.700;38.270;2022-11-15T19:05:45;99685.16;;;-0.47;63.10
55347;BME280;41218;55.700;38.270;2022-11-15T19:10:45;99666.94;;;-0.61;63.37
55347;BME280;41218;55.700;38.270;2022-11-15T19:15:46;99677.72;;;-0.55;63.26
55347;BME280;41218;55.700;38.270;2022-11-15T19:20:46;99677.13;;;-0.52;63.29
55347;BME280;41218;55.700;38.270;2022-11-15T19:25:56;99661.19;;;-0.59;63.38
55347;BME280;41218;55.700;38.270;2022-11-15T19:31:14;99673.41;;;-0.56;63.38
55347;BME280;41218;55.700;38.270;2022-11-15T19:36:18;99670.16;;;-0.58;63.44
55347;BME280;41218;55.700;38.270;2022-11-15T19:41:20;99662.31;;;-0.60;63.71
55347;BME280;41218;55.700;38.270;2022-11-15T19:46:22;99648.31;;;-0.67;63.42
55347;BME280;41218;55.700;38.270;2022-11-15T19:51:26;99664.22;;;-0.61;63.71
55347;BME280;41218;55.700;38.270;2022-11-15T19:56:28;99658.88;;;-0.66;64.10
55347;BME280;41218;55.700;38.270;2022-11-15T20:01:30;99652.44;;;-0.70;63.74
55347;BME280;41218;55.700;38.270;2022-11-15T20:06:34;99654.34;;;-0.70;63.82
55347;BME280;41218;55.700;38.270;2022-11-15T20:11:35;99647.09;;;-0.75;63.99
55347;BME280;41218;55.700;38.270;2022-11-15T20:16:37;99637.84;;;-0.74;64.26
55347;BME280;41218;55.700;38.270;2022-11-15T20:21:38;99645.69;;;-0.72;63.82
55347;BME280;41218;55.700;38.270;2022-11-15T20:26:39;99631.63;;;-0.74;63.97
55347;BME280;41218;55.700;38.270;2022-11-15T20:31:39;99644.28;;;-0.70;63.91
55347;BME280;41218;55.700;38.270;2022-11-15T20:36:40;99638.34;;;-0.72;64.22
55347;BME280;41218;55.700;38.270;2022-11-15T20:41:40;99633.03;;;-0.77;64.17
55347;BME280;41218;55.700;38.270;2022-11-15T20:46:41;99624.38;;;-0.79;63.96
55347;BME280;41218;55.700;38.270;2022-11-15T20:51:41;99610.66;;;-0.88;64.03
55347;BME280;41218;55.700;38.270;2022-11-15T20:56:42;99637.44;;;-0.81;64.17
55347;BME280;41218;55.700;38.270;2022-11-15T21:01:42;99640.66;;;-0.79;64.18
55347;BME280;41218;55.700;38.270;2022-11-15T21:06:46;99627.56;;;-0.91;63.87
55347;BME280;41218;55.700;38.270;2022-11-15T21:11:46;99621.78;;;-1.03;64.76
55347;BME280;41218;55.700;38.270;2022-11-15T21:17:06;99618.34;;;-1.09;64.61
55347;BME280;41218;55.700;38.270;2022-11-15T21:22:09;99622.06;;;-1.05;64.75
55347;BME280;41218;55.700;38.270;2022-11-15T21:27:11;99618.56;;;-1.05;64.98
55347;BME280;41218;55.700;38.270;2022-11-15T21:32:12;99619.34;;;-1.05;64.73
55347;BME280;41218;55.700;38.270;2022-11-15T21:37:12;99612.69;;;-1.12;64.55
55347;BME280;41218;55.700;38.270;2022-11-15T21:42:13;99621.06;;;-1.09;64.76
55347;BME280;41218;55.700;38.270;2022-11-15T21:47:13;99626.09;;;-1.02;64.73
55347;BME280;41218;55.700;38.270;2022-11-15T21:52:13;99626.88;;;-1.02;64.79
55347;BME280;41218;55.700;38.270;2022-11-15T21:57:14;99612.03;;;-1.04;64.66
55347;BME280;41218;55.700;38.270;2022-11-15T22:02:14;99615.41;;;-1.12;64.82
55347;BME280;41218;55.700;38.270;2022-11-15T22:07:15;99614.38;;;-1.16;65.05
55347;BME280;41218;55.700;38.270;2022-11-15T22:12:16;99606.03;;;-1.20;65.11
55347;BME280;41218;55.700;38.270;2022-11-15T22:17:16;99606.34;;;-1.22;65.26
55347;BME280;41218;55.700;38.270;2022-11-15T22:22:17;99608.53;;;-1.24;65.35
55347;BME280;41218;55.700;38.270;2022-11-15T22:27:17;99606.03;;;-1.20;65.36
55347;BME280;41218;55.700;38.270;2022-11-15T22:32:18;99596.50;;;-1.17;65.28
55347;BME280;41218;55.700;38.270;2022-11-15T22:37:18;99589.56;;;-1.24;64.97
55347;BME280;41218;55.700;38.270;2022-11-15T22:42:19;99594.59;;;-1.17;65.16
55347;BME280;41218;55.700;38.270;2022-11-15T22:47:20;99586.25;;;-1.21;65.41
55347;BME280;41218;55.700;38.270;2022-11-15T22:52:20;99591.09;;;-1.17;64.88
55347;BME280;41218;55.700;38.270;2022-11-15T22:57:21;99586.75;;;-1.18;65.12
55347;BME280;41218;55.700;38.270;2022-11-15T23:02:22;99601.34;;;-1.14;64.86
55347;BME280;41218;55.700;38.270;2022-11-15T23:07:22;99599.22;;;-1.17;65.18
55347;BME280;41218;55.700;38.270;2022-11-15T23:12:23;99598.22;;;-1.22;64.80
55347;BME280;41218;55.700;38.270;2022-11-15T23:17:42;99598.56;;;-1.28;65.10
55347;BME280;41218;55.700;38.270;2022-11-15T23:22:42;99590.41;;;-1.28;64.88
55347;BME280;41218;55.700;38.270;2022-11-15T23:27:49;99582.06;;;-1.32;65.31
55347;BME280;41218;55.700;38.270;2022-11-15T23:32:49;99584.50;;;-1.30;65.22
55347;BME280;41218;55.700;38.270;2022-11-15T23:38:08;99583.41;;;-1.29;65.52
55347;BME280;41218;55.700;38.270;2022-11-15T23:43:09;99562.66;;;-1.39;64.91
55347;BME280;41218;55.700;38.270;2022-11-15T23:48:10;99574.81;;;-1.36;65.25
55347;BME280;41218;55.700;38.270;2022-11-15T23:53:10;99587.28;;;-1.35;65.29
55347;BME280;41218;55.700;38.270;2022-11-15T23:58:11;99582.72;;;-1.40;65.06
